sensor_id;sensor_type;location;lat;lon;timestamp;pressure;altitude;pressure_sealevel;temperature;humidity
75788;BME280;64406;50.024;14.492;2023-03-24T00:02:24;97322.53;;;11.48;64.07
75788;BME280;64406;50.024;14.492;2023-03-24T00:04:50;97320.47;;;11.44;64.08
75788;BME280;64406;50.024;14.492;2023-03-24T00:07:17;97331.06;;;11.41;64.58
75788;BME280;64406;50.024;14.492;2023-03-24T00:09:44;97319.69;;;11.44;63.97
75788;BME280;64406;50.024;14.492;2023-03-24T00:12:11;97317.28;;;11.42;64.21
75788;BME280;64406;50.024;14.492;2023-03-24T00:14:39;97314.72;;;11.37;64.80
75788;BME280;64406;50.024;14.492;2023-03-24T00:17:06;97313.91;;;11.37;64.34
75788;BME280;64406;50.024;14.492;2023-03-24T00:19:39;97306.72;;;11.32;64.78
75788;BME280;64406;50.024;14.492;2023-03-24T00:22:06;97303.41;;;11.35;64.11
75788;BME280;64406;50.024;14.492;2023-03-24T00:24:33;97308.00;;;11.35;64.83
75788;BME280;64406;50.024;14.492;2023-03-24T00:26:59;97304.47;;;11.26;64.82
75788;BME280;64406;50.024;14.492;2023-03-24T00:29:25;97298.69;;;11.19;65.00
75788;BME280;64406;50.024;14.492;2023-03-24T00:31:52;97300.19;;;11.25;65.45
75788;BME280;64406;50.024;14.492;2023-03-24T00:34:18;97311.13;;;11.28;65.46
75788;BME280;64406;50.024;14.492;2023-03-24T00:36:48;97300.19;;;11.25;65.29
75788;BME280;64406;50.024;14.492;2023-03-24T00:39:14;97290.00;;;11.22;66.18
75788;BME280;64406;50.024;14.492;2023-03-24T00:41:43;97293.47;;;11.22;65.93
75788;BME280;64406;50.024;14.492;2023-03-24T00:44:13;97290.13;;;11.16;65.78
75788;BME280;64406;50.024;14.492;2023-03-24T00:46:44;97282.03;;;11.16;65.67
75788;BME280;64406;50.024;14.492;2023-03-24T00:49:11;97298.38;;;11.20;65.53
75788;BME280;64406;50.024;14.492;2023-03-24T00:51:39;97280.94;;;11.18;66.28
75788;BME280;64406;50.024;14.492;2023-03-24T00:54:06;97272.06;;;11.17;65.76
75788;BME280;64406;50.024;14.492;2023-03-24T00:56:34;97271.00;;;11.27;65.47
75788;BME280;64406;50.024;14.492;2023-03-24T00:59:03;97270.69;;;11.28;65.50
75788;BME280;64406;50.024;14.492;2023-03-24T01:01:30;97273.69;;;11.27;65.63
75788;BME280;64406;50.024;14.492;2023-03-24T01:04:01;97270.22;;;11.26;65.55
75788;BME280;64406;50.024;14.492;2023-03-24T01:06:27;97266.91;;;11.29;65.08
75788;BME280;64406;50.024;14.492;2023-03-24T01:08:54;97265.63;;;11.27;65.51
75788;BME280;64406;50.024;14.492;2023-03-24T01:11:24;97265.72;;;11.22;65.32
75788;BME280;64406;50.024;14.492;2023-03-24T01:13:51;97260.16;;;11.18;65.66
75788;BME280;64406;50.024;14.492;2023-03-24T01:16:19;97254.09;;;11.12;65.73
75788;BME280;64406;50.024;14.492;2023-03-24T01:18:46;97252.19;;;11.13;65.94
75788;BME280;64406;50.024;14.492;2023-03-24T01:21:13;97254.56;;;11.14;65.27
75788;BME280;64406;50.024;14.492;2023-03-24T01:23:39;97265.56;;;11.18;65.29
75788;BME280;64406;50.024;14.492;2023-03-24T01:26:07;97266.34;;;11.19;64.94
75788;BME280;64406;50.024;14.492;2023-03-24T01:28:34;97261.13;;;11.22;64.72
75788;BME280;64406;50.024;14.492;2023-03-24T01:31:06;97260.59;;;11.11;65.85
75788;BME280;64406;50.024;14.492;2023-03-24T01:33:32;97258.38;;;11.13;65.42
75788;BME280;64406;50.024;14.492;2023-03-24T01:35:57;97259.06;;;11.19;64.97
75788;BME280;64406;50.024;14.492;2023-03-24T01:38:23;97266.66;;;11.17;65.59
75788;BME280;64406;50.024;14.492;2023-03-24T01:40:49;97257.78;;;11.16;65.58
75788;BME280;64406;50.024;14.492;2023-03-24T01:43:26;97252.75;;;11.24;65.11
75788;BME280;64406;50.024;14.492;2023-03-24T01:48:35;97242.03;;;11.32;65.28
75788;BME280;64406;50.024;14.492;2023-03-24T01:51:05;97241.03;;;11.28;65.08
75788;BME280;64406;50.024;14.492;2023-03-24T01:53:38;97233.16;;;11.32;65.02
75788;BME280;64406;50.024;14.492;2023-03-24T01:56:05;97231.91;;;11.38;64.25
75788;BME280;64406;50.024;14.492;2023-03-24T01:58:33;97232.41;;;11.40;64.45
75788;BME280;64406;50.024;14.492;2023-03-24T02:01:00;97222.25;;;11.37;64.97
75788;BME280;64406;50.024;14.492;2023-03-24T02:03:27;97225.72;;;11.37;65.04
75788;BME280;64406;50.024;14.492;2023-03-24T02:05:58;97220.66;;;11.36;64.64
75788;BME280;64406;50.024;14.492;2023-03-24T02:11:32;97216.97;;;11.32;65.20
75788;BME280;64406;50.024;14.492;2023-03-24T02:13:58;97206.97;;;11.32;65.07
75788;BME280;64406;50.024;14.492;2023-03-24T02:17:01;97214.28;;;11.32;65.39
75788;BME280;64406;50.024;14.492;2023-03-24T02:22:55;97211.22;;;11.25;66.04
75788;BME280;64406;50.024;14.492;2023-03-24T02:44:28;97201.09;;;11.08;66.98
75788;BME280;64406;50.024;14.492;2023-03-24T02:49:39;97204.03;;;11.20;66.68
75788;BME280;64406;50.024;14.492;2023-03-24T02:52:21;97196.94;;;11.24;65.81
75788;BME280;64406;50.024;14.492;2023-03-24T02:54:56;97196.00;;;11.29;65.62
75788;BME280;64406;50.024;14.492;2023-03-24T02:57:36;97186.47;;;11.23;66.54
75788;BME280;64406;50.024;14.492;2023-03-24T03:00:10;97191.00;;;11.13;66.75
75788;BME280;64406;50.024;14.492;2023-03-24T03:02:44;97203.00;;;11.07;67.29
75788;BME280;64406;50.024;14.492;2023-03-24T03:05:19;97192.06;;;11.04;67.70
75788;BME280;64406;50.024;14.492;2023-03-24T03:07:47;97191.06;;;11.00;67.79
75788;BME280;64406;50.024;14.492;2023-03-24T03:10:20;97198.00;;;10.92;67.92
75788;BME280;64406;50.024;14.492;2023-03-24T03:12:51;97188.81;;;10.93;67.66
75788;BME280;64406;50.024;14.492;2023-03-24T03:15:22;97188.06;;;11.01;67.29
75788;BME280;64406;50.024;14.492;2023-03-24T03:17:57;97176.81;;;10.99;67.75
75788;BME280;64406;50.024;14.492;2023-03-24T03:20:28;97187.34;;;11.09;67.69
75788;BME280;64406;50.024;14.492;2023-03-24T03:23:03;97180.53;;;11.12;67.55
75788;BME280;64406;50.024;14.492;2023-03-24T03:25:35;97183.63;;;11.28;67.05
75788;BME280;64406;50.024;14.492;2023-03-24T03:28:04;97186.56;;;11.40;66.80
75788;BME280;64406;50.024;14.492;2023-03-24T03:30:41;97178.81;;;11.47;66.32
75788;BME280;64406;50.024;14.492;2023-03-24T03:33:15;97176.13;;;11.47;66.32
75788;BME280;64406;50.024;14.492;2023-03-24T03:35:57;97187.13;;;11.59;66.11
75788;BME280;64406;50.024;14.492;2023-03-24T03:38:54;97166.53;;;11.63;65.62
75788;BME280;64406;50.024;14.492;2023-03-24T03:41:23;97168.44;;;11.63;66.13
75788;BME280;64406;50.024;14.492;2023-03-24T03:43:49;97168.44;;;11.63;66.00
75788;BME280;64406;50.024;14.492;2023-03-24T03:46:15;97171.41;;;11.61;66.07
75788;BME280;64406;50.024;14.492;2023-03-24T03:48:42;97167.13;;;11.60;65.88
75788;BME280;64406;50.024;14.492;2023-03-24T03:51:09;97167.13;;;11.60;66.10
75788;BME280;64406;50.024;14.492;2023-03-24T03:54:12;97170.78;;;11.56;65.75
75788;BME280;64406;50.024;14.492;2023-03-24T03:56:33;97176.19;;;11.56;66.55
75788;BME280;64406;50.024;14.492;2023-03-24T03:58:59;97171.25;;;11.58;66.48
75788;BME280;64406;50.024;14.492;2023-03-24T04:01:27;97176.03;;;11.61;66.14
75788;BME280;64406;50.024;14.492;2023-03-24T04:04:22;97171.94;;;11.63;66.12
75788;BME280;64406;50.024;14.492;2023-03-24T04:07:14;97173.28;;;11.52;67.08
75788;BME280;64406;50.024;14.492;2023-03-24T04:17:52;97167.28;;;11.55;66.81
75788;BME280;64406;50.024;14.492;2023-03-24T04:20:49;97167.28;;;11.55;66.43
75788;BME280;64406;50.024;14.492;2023-03-24T04:34:49;97167.53;;;11.36;67.51
75788;BME280;64406;50.024;14.492;2023-03-24T04:37:26;97166.53;;;11.32;67.13
75788;BME280;64406;50.024;14.492;2023-03-24T04:39:58;97157.66;;;11.32;67.53
75788;BME280;64406;50.024;14.492;2023-03-24T04:42:40;97148.94;;;11.35;66.97
75788;BME280;64406;50.024;14.492;2023-03-24T04:45:07;97160.38;;;11.40;67.64
75788;BME280;64406;50.024;14.492;2023-03-24T04:47:40;97161.69;;;11.43;66.50
75788;BME280;64406;50.024;14.492;2023-03-24T04:50:10;97155.44;;;11.34;67.52
75788;BME280;64406;50.024;14.492;2023-03-24T04:52:39;97159.44;;;11.36;67.65
75788;BME280;64406;50.024;14.492;2023-03-24T04:55:29;97152.75;;;11.34;66.92
75788;BME280;64406;50.024;14.492;2023-03-24T04:57:56;97148.31;;;11.38;67.01
75788;BME280;64406;50.024;14.492;2023-03-24T05:00:22;97134.38;;;11.36;66.91
75788;BME280;64406;50.024;14.492;2023-03-24T05:02:48;97141.28;;;11.28;67.70
75788;BME280;64406;50.024;14.492;2023-03-24T05:05:17;97143.81;;;11.25;67.27
75788;BME280;64406;50.024;14.492;2023-03-24T05:07:43;97143.97;;;11.28;67.72
75788;BME280;64406;50.024;14.492;2023-03-24T05:10:10;97134.81;;;11.29;67.70
75788;BME280;64406;50.024;14.492;2023-03-24T05:12:36;97118.44;;;11.26;68.09
75788;BME280;64406;50.024;14.492;2023-03-24T05:15:02;97100.72;;;11.33;67.56
75788;BME280;64406;50.024;14.492;2023-03-24T05:17:28;97103.53;;;11.28;67.60
75788;BME280;64406;50.024;14.492;2023-03-24T05:19:54;97115.00;;;11.34;67.36
75788;BME280;64406;50.024;14.492;2023-03-24T05:22:20;97095.78;;;11.27;67.07
75788;BME280;64406;50.024;14.492;2023-03-24T05:24:45;97098.94;;;11.29;67.70
75788;BME280;64406;50.024;14.492;2023-03-24T05:27:11;97101.63;;;11.29;67.80
75788;BME280;64406;50.024;14.492;2023-03-24T05:29:37;97103.41;;;11.33;67.46
75788;BME280;64406;50.024;14.492;2023-03-24T05:32:03;97099.13;;;11.32;67.00
75788;BME280;64406;50.024;14.492;2023-03-24T05:34:28;97102.31;;;11.34;66.79
75788;BME280;64406;50.024;14.492;2023-03-24T05:36:54;97102.50;;;11.38;67.52
75788;BME280;64406;50.024;14.492;2023-03-24T05:39:20;97098.69;;;11.39;66.95
75788;BME280;64406;50.024;14.492;2023-03-24T05:41:46;97097.72;;;11.35;66.97
75788;BME280;64406;50.024;14.492;2023-03-24T05:44:11;97091.06;;;11.41;66.90
75788;BME280;64406;50.024;14.492;2023-03-24T05:46:37;97086.31;;;11.38;67.13
75788;BME280;64406;50.024;14.492;2023-03-24T05:49:03;97087.75;;;11.44;66.29
75788;BME280;64406;50.024;14.492;2023-03-24T05:51:28;97093.81;;;11.50;66.88
75788;BME280;64406;50.024;14.492;2023-03-24T05:53:54;97097.31;;;11.50;66.69
75788;BME280;64406;50.024;14.492;2023-03-24T05:56:20;97086.34;;;11.55;66.36
75788;BME280;64406;50.024;14.492;2023-03-24T05:58:46;97068.59;;;11.54;66.19
75788;BME280;64406;50.024;14.492;2023-03-24T06:01:11;97077.66;;;11.58;66.27
75788;BME280;64406;50.024;14.492;2023-03-24T06:03:37;97069.09;;;11.56;65.92
75788;BME280;64406;50.024;14.492;2023-03-24T06:06:07;97070.38;;;11.67;65.50
75788;BME280;64406;50.024;14.492;2023-03-24T06:08:33;97072.78;;;11.78;65.27
75788;BME280;64406;50.024;14.492;2023-03-24T06:11:00;97076.47;;;11.82;65.76
75788;BME280;64406;50.024;14.492;2023-03-24T06:13:27;97075.06;;;11.84;64.87
75788;BME280;64406;50.024;14.492;2023-03-24T06:15:53;97071.56;;;11.84;65.13
75788;BME280;64406;50.024;14.492;2023-03-24T06:18:26;97073.75;;;11.82;65.55
75788;BME280;64406;50.024;14.492;2023-03-24T06:20:53;97071.66;;;11.79;65.20
75788;BME280;64406;50.024;14.492;2023-03-24T06:23:24;97075.06;;;11.84;65.15
75788;BME280;64406;50.024;14.492;2023-03-24T06:25:53;97070.31;;;11.90;64.92
75788;BME280;64406;50.024;14.492;2023-03-24T06:28:20;97067.59;;;11.90;65.48
75788;BME280;64406;50.024;14.492;2023-03-24T06:30:50;97062.69;;;11.92;65.39
75788;BME280;64406;50.024;14.492;2023-03-24T06:33:16;97072.53;;;11.96;64.54
75788;BME280;64406;50.024;14.492;2023-03-24T06:35:42;97067.59;;;11.98;64.85
75788;BME280;64406;50.024;14.492;2023-03-24T06:38:08;97058.25;;;12.05;64.57
75788;BME280;64406;50.024;14.492;2023-03-24T06:40:34;97061.44;;;12.15;64.54
75788;BME280;64406;50.024;14.492;2023-03-24T06:42:59;97063.00;;;12.34;63.87
75788;BME280;64406;50.024;14.492;2023-03-24T06:45:26;97066.50;;;12.43;63.31
75788;BME280;64406;50.024;14.492;2023-03-24T06:47:52;97073.97;;;12.46;62.83
75788;BME280;64406;50.024;14.492;2023-03-24T06:50:22;97076.81;;;12.41;63.70
75788;BME280;64406;50.024;14.492;2023-03-24T06:52:52;97071.91;;;12.43;63.35
75788;BME280;64406;50.024;14.492;2023-03-24T06:55:18;97076.34;;;12.47;63.46
75788;BME280;64406;50.024;14.492;2023-03-24T07:05:05;97079.69;;;12.62;62.85
75788;BME280;64406;50.024;14.492;2023-03-24T07:07:33;97078.56;;;12.71;61.92
75788;BME280;64406;50.024;14.492;2023-03-24T07:10:00;97063.75;;;12.77;62.60
75788;BME280;64406;50.024;14.492;2023-03-24T07:12:26;97069.00;;;12.83;62.32
75788;BME280;64406;50.024;14.492;2023-03-24T07:14:52;97060.09;;;12.82;61.20
75788;BME280;64406;50.024;14.492;2023-03-24T07:17:20;97069.94;;;12.95;61.76
75788;BME280;64406;50.024;14.492;2023-03-24T07:19:53;97056.59;;;12.90;61.24
75788;BME280;64406;50.024;14.492;2023-03-24T07:22:22;97074.34;;;13.09;61.03
75788;BME280;64406;50.024;14.492;2023-03-24T07:24:48;97069.56;;;13.14;61.01
75788;BME280;64406;50.024;14.492;2023-03-24T07:27:14;97068.75;;;13.22;60.84
75788;BME280;64406;50.024;14.492;2023-03-24T07:29:43;97055.84;;;13.19;60.85
75788;BME280;64406;50.024;14.492;2023-03-24T07:32:09;97032.16;;;13.16;60.70
75788;BME280;64406;50.024;14.492;2023-03-24T07:34:35;97054.22;;;13.36;60.45
75788;BME280;64406;50.024;14.492;2023-03-24T07:37:01;97053.16;;;13.28;60.54
75788;BME280;64406;50.024;14.492;2023-03-24T07:39:27;97048.84;;;13.27;60.51
75788;BME280;64406;50.024;14.492;2023-03-24T07:41:52;97061.34;;;13.40;60.09
75788;BME280;64406;50.024;14.492;2023-03-24T07:44:18;97048.63;;;13.41;60.05
75788;BME280;64406;50.024;14.492;2023-03-24T07:46:44;97051.91;;;13.55;59.46
75788;BME280;64406;50.024;14.492;2023-03-24T07:49:11;97044.69;;;13.68;58.93
75788;BME280;64406;50.024;14.492;2023-03-24T07:51:36;97050.72;;;13.65;58.82
75788;BME280;64406;50.024;14.492;2023-03-24T07:54:02;97049.31;;;13.67;58.89
75788;BME280;64406;50.024;14.492;2023-03-24T07:56:29;97049.41;;;13.71;58.63
75788;BME280;64406;50.024;14.492;2023-03-24T07:58:58;97040.66;;;13.74;58.97
75788;BME280;64406;50.024;14.492;2023-03-24T08:01:24;97029.84;;;13.74;58.45
75788;BME280;64406;50.024;14.492;2023-03-24T08:03:50;97050.16;;;13.80;58.63
75788;BME280;64406;50.024;14.492;2023-03-24T08:06:19;97021.91;;;13.69;58.52
75788;BME280;64406;50.024;14.492;2023-03-24T08:08:45;97057.97;;;13.81;58.43
75788;BME280;64406;50.024;14.492;2023-03-24T08:11:10;97033.50;;;13.69;58.31
75788;BME280;64406;50.024;14.492;2023-03-24T08:13:36;97060.69;;;14.02;57.79
75788;BME280;64406;50.024;14.492;2023-03-24T08:16:02;97050.31;;;14.04;57.86
75788;BME280;64406;50.024;14.492;2023-03-24T08:18:29;97059.09;;;14.01;58.10
75788;BME280;64406;50.024;14.492;2023-03-24T08:20:59;97050.84;;;13.98;57.83
75788;BME280;64406;50.024;14.492;2023-03-24T08:23:29;97060.34;;;14.04;57.37
75788;BME280;64406;50.024;14.492;2023-03-24T08:25:55;97049.00;;;14.10;57.41
75788;BME280;64406;50.024;14.492;2023-03-24T08:28:21;97048.13;;;14.19;57.40
75788;BME280;64406;50.024;14.492;2023-03-24T08:30:51;97046.03;;;14.24;56.95
75788;BME280;64406;50.024;14.492;2023-03-24T08:33:20;97050.38;;;14.37;56.82
75788;BME280;64406;50.024;14.492;2023-03-24T08:35:48;97041.91;;;14.39;56.78
75788;BME280;64406;50.024;14.492;2023-03-24T08:38:16;97040.53;;;14.33;56.61
75788;BME280;64406;50.024;14.492;2023-03-24T08:40:44;97041.69;;;14.44;55.34
75788;BME280;64406;50.024;14.492;2023-03-24T08:43:13;97036.81;;;14.58;55.58
75788;BME280;64406;50.024;14.492;2023-03-24T08:45:39;97038.66;;;14.66;55.97
75788;BME280;64406;50.024;14.492;2023-03-24T08:48:06;97037.75;;;15.08;56.99
75788;BME280;64406;50.024;14.492;2023-03-24T08:50:35;97033.91;;;15.21;54.18
75788;BME280;64406;50.024;14.492;2023-03-24T08:53:01;97031.97;;;15.09;54.25
75788;BME280;64406;50.024;14.492;2023-03-24T08:55:28;97021.94;;;15.22;54.26
75788;BME280;64406;50.024;14.492;2023-03-24T08:57:54;97011.31;;;15.29;54.02
75788;BME280;64406;50.024;14.492;2023-03-24T09:00:20;97024.66;;;15.34;53.57
75788;BME280;64406;50.024;14.492;2023-03-24T09:02:49;97026.59;;;15.46;53.07
75788;BME280;64406;50.024;14.492;2023-03-24T09:05:16;97010.44;;;15.62;52.52
75788;BME280;64406;50.024;14.492;2023-03-24T09:07:46;97016.28;;;15.88;53.02
75788;BME280;64406;50.024;14.492;2023-03-24T09:10:13;97011.00;;;15.67;52.27
75788;BME280;64406;50.024;14.492;2023-03-24T09:12:42;97010.63;;;15.69;52.76
75788;BME280;64406;50.024;14.492;2023-03-24T09:15:10;97015.84;;;15.74;52.58
75788;BME280;64406;50.024;14.492;2023-03-24T09:17:36;97008.28;;;15.67;52.95
75788;BME280;64406;50.024;14.492;2023-03-24T09:20:05;97011.53;;;15.85;52.23
75788;BME280;64406;50.024;14.492;2023-03-24T09:22:40;96994.69;;;15.80;52.02
75788;BME280;64406;50.024;14.492;2023-03-24T09:25:07;96993.13;;;16.07;51.58
75788;BME280;64406;50.024;14.492;2023-03-24T09:27:33;96983.88;;;15.95;51.07
75788;BME280;64406;50.024;14.492;2023-03-24T09:29:59;96981.28;;;15.99;51.30
75788;BME280;64406;50.024;14.492;2023-03-24T09:32:25;96992.75;;;16.20;51.04
75788;BME280;64406;50.024;14.492;2023-03-24T09:34:51;96996.59;;;16.47;50.28
75788;BME280;64406;50.024;14.492;2023-03-24T09:37:17;97002.94;;;16.79;49.70
75788;BME280;64406;50.024;14.492;2023-03-24T09:39:42;97000.41;;;17.18;48.50
75788;BME280;64406;50.024;14.492;2023-03-24T09:42:18;96999.19;;;17.31;48.75
75788;BME280;64406;50.024;14.492;2023-03-24T09:44:47;96994.81;;;17.62;48.45
75788;BME280;64406;50.024;14.492;2023-03-24T09:49:50;96978.66;;;17.53;48.00
75788;BME280;64406;50.024;14.492;2023-03-24T09:52:21;96977.97;;;17.56;47.46
75788;BME280;64406;50.024;14.492;2023-03-24T09:54:56;96976.69;;;17.34;48.08
75788;BME280;64406;50.024;14.492;2023-03-24T09:57:33;96975.44;;;17.48;47.44
75788;BME280;64406;50.024;14.492;2023-03-24T10:00:14;96979.72;;;17.49;48.01
75788;BME280;64406;50.024;14.492;2023-03-24T10:02:40;96980.94;;;17.67;47.37
75788;BME280;64406;50.024;14.492;2023-03-24T10:05:14;96982.69;;;17.24;47.74
75788;BME280;64406;50.024;14.492;2023-03-24T10:07:50;96979.13;;;17.39;47.15
75788;BME280;64406;50.024;14.492;2023-03-24T10:10:32;96983.44;;;17.40;47.77
75788;BME280;64406;50.024;14.492;2023-03-24T10:13:06;96972.22;;;17.26;47.64
75788;BME280;64406;50.024;14.492;2023-03-24T10:17:00;96972.84;;;17.20;48.09
75788;BME280;64406;50.024;14.492;2023-03-24T10:22:16;96977.91;;;17.21;48.29
75788;BME280;64406;50.024;14.492;2023-03-24T10:27:29;96992.31;;;16.90;49.49
75788;BME280;64406;50.024;14.492;2023-03-24T10:30:03;96996.88;;;16.86;49.89
75788;BME280;64406;50.024;14.492;2023-03-24T10:32:33;96983.00;;;16.75;51.02
75788;BME280;64406;50.024;14.492;2023-03-24T10:35:01;97000.81;;;16.73;49.54
75788;BME280;64406;50.024;14.492;2023-03-24T10:37:34;97005.47;;;16.72;50.25
75788;BME280;64406;50.024;14.492;2023-03-24T10:40:00;97015.16;;;16.57;49.93
75788;BME280;64406;50.024;14.492;2023-03-24T10:42:30;97015.63;;;16.47;50.77
75788;BME280;64406;50.024;14.492;2023-03-24T10:44:58;97014.44;;;16.33;51.21
75788;BME280;64406;50.024;14.492;2023-03-24T10:47:25;97034.28;;;16.21;51.36
75788;BME280;64406;50.024;14.492;2023-03-24T10:49:54;97035.22;;;16.13;52.19
75788;BME280;64406;50.024;14.492;2023-03-24T10:52:21;97011.41;;;16.22;52.24
75788;BME280;64406;50.024;14.492;2023-03-24T10:54:57;97023.97;;;16.54;51.36
75788;BME280;64406;50.024;14.492;2023-03-24T10:57:25;97039.31;;;16.47;51.68
75788;BME280;64406;50.024;14.492;2023-03-24T11:00:00;97029.94;;;16.44;51.57
75788;BME280;64406;50.024;14.492;2023-03-24T11:02:34;97027.22;;;16.44;51.59
75788;BME280;64406;50.024;14.492;2023-03-24T11:05:17;97036.97;;;16.33;52.19
75788;BME280;64406;50.024;14.492;2023-03-24T11:07:48;97031.53;;;16.33;52.12
75788;BME280;64406;50.024;14.492;2023-03-24T11:10:17;97020.81;;;16.80;51.20
75788;BME280;64406;50.024;14.492;2023-03-24T11:15:25;97013.28;;;16.90;50.58
75788;BME280;64406;50.024;14.492;2023-03-24T11:18:00;97025.75;;;16.91;51.10
75788;BME280;64406;50.024;14.492;2023-03-24T11:20:55;97026.94;;;16.49;51.42
75788;BME280;64406;50.024;14.492;2023-03-24T11:23:39;97018.44;;;16.23;52.13
75788;BME280;64406;50.024;14.492;2023-03-24T11:26:18;97004.81;;;15.95;52.70
75788;BME280;64406;50.024;14.492;2023-03-24T11:28:56;97021.69;;;16.00;52.77
75788;BME280;64406;50.024;14.492;2023-03-24T11:31:31;97011.56;;;16.13;52.81
75788;BME280;64406;50.024;14.492;2023-03-24T11:39:25;97006.91;;;15.73;54.29
75788;BME280;64406;50.024;14.492;2023-03-24T11:41:57;97019.78;;;15.76;54.41
75788;BME280;64406;50.024;14.492;2023-03-24T11:44:24;97022.06;;;15.87;53.51
75788;BME280;64406;50.024;14.492;2023-03-24T11:46:54;97026.84;;;15.65;54.05
75788;BME280;64406;50.024;14.492;2023-03-24T11:49:25;97020.38;;;15.70;54.34
75788;BME280;64406;50.024;14.492;2023-03-24T11:51:53;97025.09;;;15.61;54.15
75788;BME280;64406;50.024;14.492;2023-03-24T11:54:23;97022.72;;;15.59;54.24
75788;BME280;64406;50.024;14.492;2023-03-24T11:56:54;97022.84;;;15.63;54.29
75788;BME280;64406;50.024;14.492;2023-03-24T11:59:33;97027.72;;;15.69;54.84
75788;BME280;64406;50.024;14.492;2023-03-24T12:02:11;97027.69;;;15.57;54.27
75788;BME280;64406;50.024;14.492;2023-03-24T12:04:55;97028.41;;;15.66;54.44
75788;BME280;64406;50.024;14.492;2023-03-24T12:10:27;97019.41;;;15.90;53.41
75788;BME280;64406;50.024;14.492;2023-03-24T12:13:06;96996.03;;;15.61;53.54
75788;BME280;64406;50.024;14.492;2023-03-24T12:15:49;97002.84;;;15.67;53.59
75788;BME280;64406;50.024;14.492;2023-03-24T12:21:08;97002.84;;;15.67;54.07
75788;BME280;64406;50.024;14.492;2023-03-24T12:23:53;97006.09;;;15.48;53.71
75788;BME280;64406;50.024;14.492;2023-03-24T12:26:26;96974.91;;;15.30;55.03
75788;BME280;64406;50.024;14.492;2023-03-24T12:37:29;97000.34;;;15.38;54.89
75788;BME280;64406;50.024;14.492;2023-03-24T12:40:23;97002.28;;;15.62;53.91
75788;BME280;64406;50.024;14.492;2023-03-24T12:43:23;96994.34;;;15.81;53.73
75788;BME280;64406;50.024;14.492;2023-03-24T12:45:54;96990.41;;;15.66;53.95
75788;BME280;64406;50.024;14.492;2023-03-24T12:51:11;96989.03;;;15.85;54.64
75788;BME280;64406;50.024;14.492;2023-03-24T12:54:04;96975.34;;;15.69;53.96
75788;BME280;64406;50.024;14.492;2023-03-24T12:56:48;96984.63;;;15.43;55.11
75788;BME280;64406;50.024;14.492;2023-03-24T13:01:54;97001.03;;;15.35;55.46
75788;BME280;64406;50.024;14.492;2023-03-24T13:04:34;97005.19;;;15.08;55.39
75788;BME280;64406;50.024;14.492;2023-03-24T13:07:10;97012.31;;;15.00;56.15
75788;BME280;64406;50.024;14.492;2023-03-24T13:09:45;97014.78;;;14.93;56.54
75788;BME280;64406;50.024;14.492;2023-03-24T13:12:22;97028.66;;;14.79;56.69
75788;BME280;64406;50.024;14.492;2023-03-24T13:17:59;97028.81;;;14.62;56.76
75788;BME280;64406;50.024;14.492;2023-03-24T13:20:51;97023.56;;;14.78;56.92
75788;BME280;64406;50.024;14.492;2023-03-24T13:23:48;97010.94;;;14.94;56.60
75788;BME280;64406;50.024;14.492;2023-03-24T13:34:43;97018.59;;;14.80;56.95
75788;BME280;64406;50.024;14.492;2023-03-24T13:37:34;97008.41;;;14.77;56.95
75788;BME280;64406;50.024;14.492;2023-03-24T13:40:26;96991.19;;;14.93;56.56
75788;BME280;64406;50.024;14.492;2023-03-24T13:43:11;96985.19;;;15.00;56.66
75788;BME280;64406;50.024;14.492;2023-03-24T13:45:47;96979.03;;;14.79;56.71
75788;BME280;64406;50.024;14.492;2023-03-24T13:48:39;97007.84;;;14.71;56.61
75788;BME280;64406;50.024;14.492;2023-03-24T13:53:45;96977.00;;;14.76;56.71
75788;BME280;64406;50.024;14.492;2023-03-24T13:56:34;96987.72;;;14.72;56.93
75788;BME280;64406;50.024;14.492;2023-03-24T14:01:33;96989.22;;;14.82;56.94
75788;BME280;64406;50.024;14.492;2023-03-24T14:07:29;96983.13;;;14.85;56.35
75788;BME280;64406;50.024;14.492;2023-03-24T14:10:00;96983.63;;;14.99;55.46
75788;BME280;64406;50.024;14.492;2023-03-24T14:12:30;96980.56;;;15.01;55.53
75788;BME280;64406;50.024;14.492;2023-03-24T14:15:16;96974.91;;;15.18;54.78
75788;BME280;64406;50.024;14.492;2023-03-24T14:17:45;96977.84;;;15.13;54.32
75788;BME280;64406;50.024;14.492;2023-03-24T14:20:22;96975.38;;;15.08;53.99
75788;BME280;64406;50.024;14.492;2023-03-24T14:22:53;96983.38;;;15.04;54.44
75788;BME280;64406;50.024;14.492;2023-03-24T14:25:25;96957.72;;;15.02;54.44
75788;BME280;64406;50.024;14.492;2023-03-24T14:28:05;96951.41;;;15.10;54.35
75788;BME280;64406;50.024;14.492;2023-03-24T14:30:32;96955.59;;;15.07;54.24
75788;BME280;64406;50.024;14.492;2023-03-24T14:33:03;96946.09;;;15.01;54.39
75788;BME280;64406;50.024;14.492;2023-03-24T14:35:35;96950.38;;;15.27;54.03
75788;BME280;64406;50.024;14.492;2023-03-24T14:38:20;96952.53;;;15.21;53.94
75788;BME280;64406;50.024;14.492;2023-03-24T14:40:51;96953.66;;;15.20;54.29
75788;BME280;64406;50.024;14.492;2023-03-24T14:48:53;96961.91;;;14.87;55.22
75788;BME280;64406;50.024;14.492;2023-03-24T14:51:50;96959.63;;;14.77;55.64
75788;BME280;64406;50.024;14.492;2023-03-24T14:56:53;96961.09;;;14.74;55.70
75788;BME280;64406;50.024;14.492;2023-03-24T14:59:26;96953.38;;;14.64;56.21
75788;BME280;64406;50.024;14.492;2023-03-24T15:01:59;96957.22;;;14.63;56.12
75788;BME280;64406;50.024;14.492;2023-03-24T15:04:26;96950.56;;;14.60;56.58
75788;BME280;64406;50.024;14.492;2023-03-24T15:06:51;96944.81;;;14.62;56.71
75788;BME280;64406;50.024;14.492;2023-03-24T15:09:17;96952.59;;;14.63;56.87
75788;BME280;64406;50.024;14.492;2023-03-24T15:11:45;96941.75;;;14.63;57.00
75788;BME280;64406;50.024;14.492;2023-03-24T15:14:23;96962.22;;;14.73;56.76